sensor_id;sensor_type;location;lat;lon;timestamp;P1;durP1;ratioP1;P2;durP2;ratioP2
33579;SDS011;19909;43.644;-79.438;2022-12-28T00:04:00;2.40;;;0.82;;
33579;SDS011;19909;43.644;-79.438;2022-12-28T00:06:28;1.05;;;0.60;;
33579;SDS011;19909;43.644;-79.438;2022-12-28T00:08:56;1.77;;;0.77;;
33579;SDS011;19909;43.644;-79.438;2022-12-28T00:11:24;2.45;;;0.90;;
33579;SDS011;19909;43.644;-79.438;2022-12-28T00:13:52;1.50;;;0.80;;
33579;SDS011;19909;43.644;-79.438;2022-12-28T00:16:32;1.52;;;0.60;;
33579;SDS011;19909;43.644;-79.438;2022-12-28T00:19:04;2.10;;;0.90;;
33579;SDS011;19909;43.644;-79.438;2022-12-28T00:21:34;1.35;;;1.05;;
33579;SDS011;19909;43.644;-79.438;2022-12-28T00:24:01;1.77;;;0.82;;
33579;SDS011;19909;43.644;-79.438;2022-12-28T00:26:28;3.03;;;1.00;;
33579;SDS011;19909;43.644;-79.438;2022-12-28T00:28:56;2.60;;;1.25;;
33579;SDS011;19909;43.644;-79.438;2022-12-28T00:31:23;1.67;;;1.10;;
33579;SDS011;19909;43.644;-79.438;2022-12-28T00:33:49;1.58;;;0.85;;
33579;SDS011;19909;43.644;-79.438;2022-12-28T00:36:15;1.33;;;0.73;;
33579;SDS011;19909;43.644;-79.438;2022-12-28T00:38:42;1.77;;;0.80;;
33579;SDS011;19909;43.644;-79.438;2022-12-28T00:41:08;2.70;;;1.40;;
33579;SDS011;19909;43.644;-79.438;2022-12-28T00:43:35;1.55;;;0.95;;
33579;SDS011;19909;43.644;-79.438;2022-12-28T00:46:02;1.67;;;0.93;;
33579;SDS011;19909;43.644;-79.438;2022-12-28T00:48:29;1.30;;;0.85;;
33579;SDS011;19909;43.644;-79.438;2022-12-28T00:51:06;2.22;;;1.20;;
33579;SDS011;19909;43.644;-79.438;2022-12-28T00:53:35;2.38;;;1.02;;
33579;SDS011;19909;43.644;-79.438;2022-12-28T00:56:09;2.28;;;0.95;;
33579;SDS011;19909;43.644;-79.438;2022-12-28T00:58:37;1.83;;;1.13;;
33579;SDS011;19909;43.644;-79.438;2022-12-28T01:01:04;1.23;;;1.02;;
33579;SDS011;19909;43.644;-79.438;2022-12-28T01:03:31;3.67;;;1.13;;
33579;SDS011;19909;43.644;-79.438;2022-12-28T01:05:57;1.63;;;1.17;;
33579;SDS011;19909;43.644;-79.438;2022-12-28T01:08:23;2.33;;;1.10;;
33579;SDS011;19909;43.644;-79.438;2022-12-28T01:10:49;2.55;;;1.38;;
33579;SDS011;19909;43.644;-79.438;2022-12-28T01:13:16;1.98;;;1.30;;
33579;SDS011;19909;43.644;-79.438;2022-12-28T01:15:43;2.17;;;1.98;;
33579;SDS011;19909;43.644;-79.438;2022-12-28T01:18:09;9.00;;;1.65;;
33579;SDS011;19909;43.644;-79.438;2022-12-28T01:20:37;2.30;;;1.40;;
33579;SDS011;19909;43.644;-79.438;2022-12-28T01:23:04;3.85;;;1.58;;
33579;SDS011;19909;43.644;-79.438;2022-12-28T01:25:31;9.40;;;1.70;;
33579;SDS011;19909;43.644;-79.438;2022-12-28T01:27:58;17.10;;;2.35;;
33579;SDS011;19909;43.644;-79.438;2022-12-28T01:30:24;10.75;;;2.80;;
33579;SDS011;19909;43.644;-79.438;2022-12-28T01:32:50;7.95;;;2.63;;
33579;SDS011;19909;43.644;-79.438;2022-12-28T01:35:17;10.18;;;3.20;;
33579;SDS011;19909;43.644;-79.438;2022-12-28T01:37:43;13.15;;;4.38;;
33579;SDS011;19909;43.644;-79.438;2022-12-28T01:40:12;9.88;;;4.50;;
33579;SDS011;19909;43.644;-79.438;2022-12-28T01:46:02;6.72;;;4.32;;
33579;SDS011;19909;43.644;-79.438;2022-12-28T01:48:28;6.63;;;3.78;;
33579;SDS011;19909;43.644;-79.438;2022-12-28T01:50:57;9.38;;;5.30;;
33579;SDS011;19909;43.644;-79.438;2022-12-28T01:53:23;7.07;;;3.95;;
33579;SDS011;19909;43.644;-79.438;2022-12-28T01:55:50;7.90;;;4.00;;
33579;SDS011;19909;43.644;-79.438;2022-12-28T01:58:18;9.25;;;4.28;;
33579;SDS011;19909;43.644;-79.438;2022-12-28T02:03:16;7.88;;;4.10;;
33579;SDS011;19909;43.644;-79.438;2022-12-28T02:05:49;7.45;;;3.67;;
33579;SDS011;19909;43.644;-79.438;2022-12-28T02:08:23;5.80;;;3.72;;
33579;SDS011;19909;43.644;-79.438;2022-12-28T02:10:56;4.43;;;2.90;;
33579;SDS011;19909;43.644;-79.438;2022-12-28T02:13:23;4.68;;;3.40;;
33579;SDS011;19909;43.644;-79.438;2022-12-28T02:15:51;5.43;;;3.42;;
33579;SDS011;19909;43.644;-79.438;2022-12-28T02:18:18;6.30;;;3.58;;
33579;SDS011;19909;43.644;-79.438;2022-12-28T02:29:06;4.68;;;3.03;;
33579;SDS011;19909;43.644;-79.438;2022-12-28T02:31:55;3.95;;;2.70;;
33579;SDS011;19909;43.644;-79.438;2022-12-28T02:34:24;5.05;;;3.15;;
33579;SDS011;19909;43.644;-79.438;2022-12-28T02:36:54;3.53;;;2.72;;
33579;SDS011;19909;43.644;-79.438;2022-12-28T02:39:27;4.80;;;2.85;;
33579;SDS011;19909;43.644;-79.438;2022-12-28T02:41:59;4.22;;;2.63;;
33579;SDS011;19909;43.644;-79.438;2022-12-28T02:44:26;3.47;;;2.60;;
33579;SDS011;19909;43.644;-79.438;2022-12-28T02:47:14;3.50;;;3.05;;
33579;SDS011;19909;43.644;-79.438;2022-12-28T02:49:59;3.92;;;2.67;;
33579;SDS011;19909;43.644;-79.438;2022-12-28T02:52:42;2.88;;;2.35;;
33579;SDS011;19909;43.644;-79.438;2022-12-28T03:03:10;4.43;;;3.50;;
33579;SDS011;19909;43.644;-79.438;2022-12-28T03:11:57;3.78;;;2.67;;
33579;SDS011;19909;43.644;-79.438;2022-12-28T03:14:29;3.35;;;2.33;;
33579;SDS011;19909;43.644;-79.438;2022-12-28T03:17:02;2.90;;;2.50;;
33579;SDS011;19909;43.644;-79.438;2022-12-28T03:19:51;3.03;;;2.33;;
33579;SDS011;19909;43.644;-79.438;2022-12-28T03:22:40;4.43;;;2.53;;
33579;SDS011;19909;43.644;-79.438;2022-12-28T03:25:33;3.88;;;2.20;;
33579;SDS011;19909;43.644;-79.438;2022-12-28T03:28:22;1.98;;;1.77;;
33579;SDS011;19909;43.644;-79.438;2022-12-28T03:31:13;2.13;;;1.73;;
33579;SDS011;19909;43.644;-79.438;2022-12-28T03:33:44;1.73;;;1.42;;
33579;SDS011;19909;43.644;-79.438;2022-12-28T03:36:29;2.83;;;1.88;;
33579;SDS011;19909;43.644;-79.438;2022-12-28T03:38:59;2.45;;;1.77;;
33579;SDS011;19909;43.644;-79.438;2022-12-28T03:41:38;4.97;;;2.58;;
33579;SDS011;19909;43.644;-79.438;2022-12-28T03:44:11;1.85;;;1.40;;
33579;SDS011;19909;43.644;-79.438;2022-12-28T03:47:24;2.80;;;2.20;;
33579;SDS011;19909;43.644;-79.438;2022-12-28T03:49:44;2.35;;;1.88;;
33579;SDS011;19909;43.644;-79.438;2022-12-28T03:52:11;2.28;;;1.70;;
33579;SDS011;19909;43.644;-79.438;2022-12-28T03:54:38;2.10;;;1.90;;
33579;SDS011;19909;43.644;-79.438;2022-12-28T03:57:05;2.10;;;1.80;;
33579;SDS011;19909;43.644;-79.438;2022-12-28T03:59:31;2.42;;;2.03;;
33579;SDS011;19909;43.644;-79.438;2022-12-28T04:01:58;2.15;;;1.83;;
33579;SDS011;19909;43.644;-79.438;2022-12-28T04:04:24;2.80;;;2.35;;
33579;SDS011;19909;43.644;-79.438;2022-12-28T04:06:50;3.13;;;2.22;;
33579;SDS011;19909;43.644;-79.438;2022-12-28T04:09:16;2.63;;;1.92;;
33579;SDS011;19909;43.644;-79.438;2022-12-28T04:11:42;2.20;;;1.80;;
33579;SDS011;19909;43.644;-79.438;2022-12-28T04:14:08;3.38;;;2.08;;
33579;SDS011;19909;43.644;-79.438;2022-12-28T04:16:35;2.35;;;1.85;;
33579;SDS011;19909;43.644;-79.438;2022-12-28T04:19:01;2.00;;;1.80;;
33579;SDS011;19909;43.644;-79.438;2022-12-28T04:21:27;2.55;;;2.08;;
33579;SDS011;19909;43.644;-79.438;2022-12-28T04:23:53;2.38;;;1.88;;
33579;SDS011;19909;43.644;-79.438;2022-12-28T04:26:19;2.80;;;2.30;;
33579;SDS011;19909;43.644;-79.438;2022-12-28T04:28:46;2.30;;;2.10;;
33579;SDS011;19909;43.644;-79.438;2022-12-28T04:31:12;2.35;;;1.90;;
33579;SDS011;19909;43.644;-79.438;2022-12-28T04:33:39;2.30;;;1.70;;
33579;SDS011;19909;43.644;-79.438;2022-12-28T04:36:12;2.35;;;1.85;;
33579;SDS011;19909;43.644;-79.438;2022-12-28T04:38:40;2.65;;;2.00;;
33579;SDS011;19909;43.644;-79.438;2022-12-28T04:41:07;2.63;;;2.10;;
33579;SDS011;19909;43.644;-79.438;2022-12-28T04:43:34;2.67;;;1.90;;
33579;SDS011;19909;43.644;-79.438;2022-12-28T04:46:05;2.38;;;2.15;;
33579;SDS011;19909;43.644;-79.438;2022-12-28T04:48:34;2.70;;;2.13;;
33579;SDS011;19909;43.644;-79.438;2022-12-28T04:51:08;2.35;;;2.00;;
33579;SDS011;19909;43.644;-79.438;2022-12-28T04:53:40;3.25;;;2.08;;
33579;SDS011;19909;43.644;-79.438;2022-12-28T04:56:07;2.33;;;1.70;;
33579;SDS011;19909;43.644;-79.438;2022-12-28T04:58:35;3.63;;;2.10;;
33579;SDS011;19909;43.644;-79.438;2022-12-28T05:01:02;2.53;;;2.00;;
33579;SDS011;19909;43.644;-79.438;2022-12-28T05:03:29;9.35;;;6.07;;
33579;SDS011;19909;43.644;-79.438;2022-12-28T05:06:00;27.33;;;17.42;;
33579;SDS011;19909;43.644;-79.438;2022-12-28T05:08:42;56.72;;;34.80;;
33579;SDS011;19909;43.644;-79.438;2022-12-28T05:11:10;72.88;;;41.40;;
33579;SDS011;19909;43.644;-79.438;2022-12-28T05:13:41;97.75;;;50.70;;
33579;SDS011;19909;43.644;-79.438;2022-12-28T05:16:10;91.78;;;49.22;;
33579;SDS011;19909;43.644;-79.438;2022-12-28T05:18:37;85.65;;;49.78;;
33579;SDS011;19909;43.644;-79.438;2022-12-28T05:21:13;87.88;;;50.58;;
33579;SDS011;19909;43.644;-79.438;2022-12-28T05:23:41;82.97;;;49.17;;
33579;SDS011;19909;43.644;-79.438;2022-12-28T05:26:09;81.60;;;48.53;;
33579;SDS011;19909;43.644;-79.438;2022-12-28T05:28:37;76.93;;;43.88;;
33579;SDS011;19909;43.644;-79.438;2022-12-28T05:31:05;59.35;;;36.25;;
33579;SDS011;19909;43.644;-79.438;2022-12-28T05:33:32;50.35;;;33.00;;
33579;SDS011;19909;43.644;-79.438;2022-12-28T05:36:07;64.03;;;34.40;;
33579;SDS011;19909;43.644;-79.438;2022-12-28T05:38:35;49.97;;;31.27;;
33579;SDS011;19909;43.644;-79.438;2022-12-28T05:43:36;51.55;;;32.13;;
33579;SDS011;19909;43.644;-79.438;2022-12-28T05:46:03;43.55;;;27.83;;
33579;SDS011;19909;43.644;-79.438;2022-12-28T05:48:31;43.03;;;27.15;;
33579;SDS011;19909;43.644;-79.438;2022-12-28T05:51:03;34.95;;;21.60;;
33579;SDS011;19909;43.644;-79.438;2022-12-28T05:53:31;33.53;;;20.80;;
33579;SDS011;19909;43.644;-79.438;2022-12-28T05:56:01;26.17;;;18.60;;
33579;SDS011;19909;43.644;-79.438;2022-12-28T05:58:29;25.85;;;16.48;;
33579;SDS011;19909;43.644;-79.438;2022-12-28T06:01:02;28.13;;;17.02;;
33579;SDS011;19909;43.644;-79.438;2022-12-28T06:03:35;24.27;;;15.40;;
33579;SDS011;19909;43.644;-79.438;2022-12-28T06:06:06;21.95;;;14.30;;
33579;SDS011;19909;43.644;-79.438;2022-12-28T06:08:34;22.40;;;14.33;;
33579;SDS011;19909;43.644;-79.438;2022-12-28T06:11:02;22.02;;;13.85;;
33579;SDS011;19909;43.644;-79.438;2022-12-28T06:13:30;20.25;;;13.00;;
33579;SDS011;19909;43.644;-79.438;2022-12-28T06:15:56;18.58;;;12.63;;
33579;SDS011;19909;43.644;-79.438;2022-12-28T06:18:23;14.65;;;10.85;;
33579;SDS011;19909;43.644;-79.438;2022-12-28T06:20:53;13.40;;;9.07;;
33579;SDS011;19909;43.644;-79.438;2022-12-28T06:23:25;12.93;;;9.38;;
33579;SDS011;19909;43.644;-79.438;2022-12-28T06:25:51;13.25;;;8.98;;
33579;SDS011;19909;43.644;-79.438;2022-12-28T06:28:17;13.30;;;8.52;;
33579;SDS011;19909;43.644;-79.438;2022-12-28T06:30:44;10.13;;;7.53;;
33579;SDS011;19909;43.644;-79.438;2022-12-28T06:33:10;12.27;;;8.65;;
33579;SDS011;19909;43.644;-79.438;2022-12-28T06:35:39;10.35;;;7.80;;
33579;SDS011;19909;43.644;-79.438;2022-12-28T06:38:06;10.75;;;7.53;;
33579;SDS011;19909;43.644;-79.438;2022-12-28T06:40:32;10.95;;;7.10;;
33579;SDS011;19909;43.644;-79.438;2022-12-28T06:42:58;10.32;;;6.68;;
33579;SDS011;19909;43.644;-79.438;2022-12-28T06:45:25;8.48;;;5.20;;
33579;SDS011;19909;43.644;-79.438;2022-12-28T06:47:51;7.07;;;5.70;;
33579;SDS011;19909;43.644;-79.438;2022-12-28T06:50:18;9.32;;;6.22;;
33579;SDS011;19909;43.644;-79.438;2022-12-28T06:52:44;7.55;;;5.20;;
33579;SDS011;19909;43.644;-79.438;2022-12-28T06:55:10;7.40;;;5.72;;
33579;SDS011;19909;43.644;-79.438;2022-12-28T06:57:36;7.07;;;5.47;;
33579;SDS011;19909;43.644;-79.438;2022-12-28T07:00:02;5.85;;;4.82;;
33579;SDS011;19909;43.644;-79.438;2022-12-28T07:02:29;6.13;;;4.40;;
33579;SDS011;19909;43.644;-79.438;2022-12-28T07:04:55;6.65;;;4.68;;
33579;SDS011;19909;43.644;-79.438;2022-12-28T07:07:21;6.35;;;4.57;;
33579;SDS011;19909;43.644;-79.438;2022-12-28T07:09:47;5.65;;;4.40;;
33579;SDS011;19909;43.644;-79.438;2022-12-28T07:12:14;5.32;;;4.05;;
33579;SDS011;19909;43.644;-79.438;2022-12-28T07:14:40;6.72;;;5.07;;
33579;SDS011;19909;43.644;-79.438;2022-12-28T07:17:06;5.72;;;4.30;;
33579;SDS011;19909;43.644;-79.438;2022-12-28T07:19:32;5.30;;;4.00;;
33579;SDS011;19909;43.644;-79.438;2022-12-28T07:21:58;5.43;;;4.15;;
33579;SDS011;19909;43.644;-79.438;2022-12-28T07:24:24;5.20;;;3.63;;
33579;SDS011;19909;43.644;-79.438;2022-12-28T07:26:51;4.18;;;3.30;;
33579;SDS011;19909;43.644;-79.438;2022-12-28T07:29:17;5.25;;;4.30;;
33579;SDS011;19909;43.644;-79.438;2022-12-28T07:31:45;5.07;;;3.83;;
33579;SDS011;19909;43.644;-79.438;2022-12-28T07:34:13;3.90;;;3.10;;
33579;SDS011;19909;43.644;-79.438;2022-12-28T07:36:40;4.40;;;3.53;;
33579;SDS011;19909;43.644;-79.438;2022-12-28T07:39:06;3.45;;;3.15;;
33579;SDS011;19909;43.644;-79.438;2022-12-28T07:41:32;3.58;;;2.80;;
33579;SDS011;19909;43.644;-79.438;2022-12-28T07:44:00;3.60;;;2.70;;
33579;SDS011;19909;43.644;-79.438;2022-12-28T07:46:27;4.43;;;3.22;;
33579;SDS011;19909;43.644;-79.438;2022-12-28T07:48:55;3.15;;;2.80;;
33579;SDS011;19909;43.644;-79.438;2022-12-28T07:53:49;3.80;;;3.10;;
33579;SDS011;19909;43.644;-79.438;2022-12-28T07:56:17;3.72;;;3.08;;
33579;SDS011;19909;43.644;-79.438;2022-12-28T07:58:55;4.22;;;3.13;;
33579;SDS011;19909;43.644;-79.438;2022-12-28T08:01:24;4.15;;;3.15;;
33579;SDS011;19909;43.644;-79.438;2022-12-28T08:03:53;3.15;;;2.67;;
33579;SDS011;19909;43.644;-79.438;2022-12-28T08:06:22;5.38;;;3.65;;
33579;SDS011;19909;43.644;-79.438;2022-12-28T08:08:56;4.40;;;3.45;;
33579;SDS011;19909;43.644;-79.438;2022-12-28T08:11:25;6.15;;;3.58;;
33579;SDS011;19909;43.644;-79.438;2022-12-28T08:13:53;4.00;;;3.25;;
33579;SDS011;19909;43.644;-79.438;2022-12-28T08:16:21;3.92;;;2.95;;
33579;SDS011;19909;43.644;-79.438;2022-12-28T08:18:51;4.10;;;2.78;;
33579;SDS011;19909;43.644;-79.438;2022-12-28T08:21:19;5.13;;;3.30;;
33579;SDS011;19909;43.644;-79.438;2022-12-28T08:23:50;4.00;;;3.20;;
33579;SDS011;19909;43.644;-79.438;2022-12-28T08:26:21;4.20;;;3.40;;
33579;SDS011;19909;43.644;-79.438;2022-12-28T08:28:58;4.22;;;3.10;;
33579;SDS011;19909;43.644;-79.438;2022-12-28T08:31:31;3.40;;;2.70;;
33579;SDS011;19909;43.644;-79.438;2022-12-28T08:33:59;3.15;;;2.53;;
33579;SDS011;19909;43.644;-79.438;2022-12-28T08:36:27;3.17;;;2.65;;
33579;SDS011;19909;43.644;-79.438;2022-12-28T08:38:54;3.75;;;2.53;;
33579;SDS011;19909;43.644;-79.438;2022-12-28T08:41:22;3.38;;;2.20;;
33579;SDS011;19909;43.644;-79.438;2022-12-28T08:43:52;3.08;;;2.58;;
33579;SDS011;19909;43.644;-79.438;2022-12-28T08:46:23;5.05;;;2.72;;
33579;SDS011;19909;43.644;-79.438;2022-12-28T08:48:51;2.90;;;2.42;;
33579;SDS011;19909;43.644;-79.438;2022-12-28T08:51:20;3.50;;;2.85;;
33579;SDS011;19909;43.644;-79.438;2022-12-28T08:53:51;3.05;;;2.63;;
33579;SDS011;19909;43.644;-79.438;2022-12-28T08:56:24;4.07;;;3.28;;
33579;SDS011;19909;43.644;-79.438;2022-12-28T08:58:52;4.00;;;2.63;;
33579;SDS011;19909;43.644;-79.438;2022-12-28T09:01:26;3.42;;;2.85;;
33579;SDS011;19909;43.644;-79.438;2022-12-28T09:03:55;3.72;;;2.90;;
33579;SDS011;19909;43.644;-79.438;2022-12-28T09:06:24;3.85;;;3.03;;
33579;SDS011;19909;43.644;-79.438;2022-12-28T09:08:58;4.05;;;2.90;;
33579;SDS011;19909;43.644;-79.438;2022-12-28T09:11:25;3.67;;;2.92;;
33579;SDS011;19909;43.644;-79.438;2022-12-28T09:13:52;3.47;;;2.80;;
33579;SDS011;19909;43.644;-79.438;2022-12-28T09:16:19;3.63;;;2.60;;
33579;SDS011;19909;43.644;-79.438;2022-12-28T09:18:51;3.65;;;2.50;;
33579;SDS011;19909;43.644;-79.438;2022-12-28T09:21:22;3.43;;;2.67;;
33579;SDS011;19909;43.644;-79.438;2022-12-28T09:23:50;6.00;;;2.30;;
33579;SDS011;19909;43.644;-79.438;2022-12-28T09:26:18;3.13;;;2.63;;
33579;SDS011;19909;43.644;-79.438;2022-12-28T09:28:46;3.40;;;2.28;;
33579;SDS011;19909;43.644;-79.438;2022-12-28T09:31:13;3.65;;;2.45;;
33579;SDS011;19909;43.644;-79.438;2022-12-28T09:33:40;3.63;;;2.72;;
33579;SDS011;19909;43.644;-79.438;2022-12-28T09:36:25;3.42;;;2.75;;
33579;SDS011;19909;43.644;-79.438;2022-12-28T09:38:56;3.63;;;2.65;;
33579;SDS011;19909;43.644;-79.438;2022-12-28T09:52:31;3.25;;;2.25;;
33579;SDS011;19909;43.644;-79.438;2022-12-28T09:55:10;2.55;;;2.22;;
33579;SDS011;19909;43.644;-79.438;2022-12-28T09:57:41;3.42;;;2.40;;
33579;SDS011;19909;43.644;-79.438;2022-12-28T10:00:20;2.97;;;2.22;;
33579;SDS011;19909;43.644;-79.438;2022-12-28T10:02:51;3.13;;;2.63;;
33579;SDS011;19909;43.644;-79.438;2022-12-28T10:05:38;2.85;;;2.22;;
33579;SDS011;19909;43.644;-79.438;2022-12-28T10:08:04;2.75;;;2.20;;
33579;SDS011;19909;43.644;-79.438;2022-12-28T10:10:34;2.47;;;1.75;;
33579;SDS011;19909;43.644;-79.438;2022-12-28T10:13:01;2.92;;;2.38;;
33579;SDS011;19909;43.644;-79.438;2022-12-28T10:15:49;2.38;;;1.90;;
33579;SDS011;19909;43.644;-79.438;2022-12-28T10:18:26;3.25;;;2.22;;
33579;SDS011;19909;43.644;-79.438;2022-12-28T10:20:52;3.00;;;2.20;;
33579;SDS011;19909;43.644;-79.438;2022-12-28T10:23:21;2.55;;;2.10;;
33579;SDS011;19909;43.644;-79.438;2022-12-28T10:25:54;2.20;;;1.75;;
33579;SDS011;19909;43.644;-79.438;2022-12-28T10:28:23;2.15;;;1.88;;
33579;SDS011;19909;43.644;-79.438;2022-12-28T10:33:33;2.80;;;2.10;;
33579;SDS011;19909;43.644;-79.438;2022-12-28T10:36:04;2.10;;;1.90;;
33579;SDS011;19909;43.644;-79.438;2022-12-28T10:38:31;4.28;;;2.03;;
33579;SDS011;19909;43.644;-79.438;2022-12-28T10:43:38;2.17;;;1.85;;
33579;SDS011;19909;43.644;-79.438;2022-12-28T10:46:11;2.85;;;2.13;;
33579;SDS011;19909;43.644;-79.438;2022-12-28T10:48:50;3.40;;;2.08;;
33579;SDS011;19909;43.644;-79.438;2022-12-28T10:51:22;2.78;;;2.17;;
33579;SDS011;19909;43.644;-79.438;2022-12-28T10:53:54;3.55;;;2.50;;
33579;SDS011;19909;43.644;-79.438;2022-12-28T10:56:28;3.05;;;2.00;;
33579;SDS011;19909;43.644;-79.438;2022-12-28T10:59:29;1.80;;;1.65;;
33579;SDS011;19909;43.644;-79.438;2022-12-28T11:01:49;2.33;;;2.03;;
33579;SDS011;19909;43.644;-79.438;2022-12-28T11:04:17;3.03;;;2.15;;
33579;SDS011;19909;43.644;-79.438;2022-12-28T11:06:59;1.50;;;1.40;;
33579;SDS011;19909;43.644;-79.438;2022-12-28T11:09:30;2.13;;;1.35;;
33579;SDS011;19909;43.644;-79.438;2022-12-28T11:15:08;1.92;;;1.70;;
33579;SDS011;19909;43.644;-79.438;2022-12-28T11:17:38;2.25;;;1.67;;
33579;SDS011;19909;43.644;-79.438;2022-12-28T11:20:13;1.85;;;1.70;;
33579;SDS011;19909;43.644;-79.438;2022-12-28T11:22:43;2.92;;;1.90;;
33579;SDS011;19909;43.644;-79.438;2022-12-28T11:25:14;2.70;;;1.50;;
33579;SDS011;19909;43.644;-79.438;2022-12-28T11:27:42;2.37;;;1.87;;
33579;SDS011;19909;43.644;-79.438;2022-12-28T11:30:23;2.33;;;1.73;;
33579;SDS011;19909;43.644;-79.438;2022-12-28T11:32:53;2.70;;;2.20;;
33579;SDS011;19909;43.644;-79.438;2022-12-28T11:35:29;1.60;;;1.38;;
33579;SDS011;19909;43.644;-79.438;2022-12-28T11:37:59;2.17;;;1.70;;
33579;SDS011;19909;43.644;-79.438;2022-12-28T11:54:33;2.60;;;1.70;;
33579;SDS011;19909;43.644;-79.438;2022-12-28T11:57:03;2.15;;;1.52;;
33579;SDS011;19909;43.644;-79.438;2022-12-28T11:59:33;2.38;;;1.63;;
33579;SDS011;19909;43.644;-79.438;2022-12-28T12:02:00;2.90;;;1.85;;
33579;SDS011;19909;43.644;-79.438;2022-12-28T12:04:30;3.33;;;1.52;;
33579;SDS011;19909;43.644;-79.438;2022-12-28T12:12:01;2.20;;;1.60;;
33579;SDS011;19909;43.644;-79.438;2022-12-28T12:14:53;1.88;;;1.50;;
33579;SDS011;19909;43.644;-79.438;2022-12-28T12:20:14;2.25;;;1.58;;
33579;SDS011;19909;43.644;-79.438;2022-12-28T12:22:49;2.33;;;1.33;;
33579;SDS011;19909;43.644;-79.438;2022-12-28T12:25:40;2.10;;;1.75;;
33579;SDS011;19909;43.644;-79.438;2022-12-28T12:31:01;2.55;;;1.67;;
33579;SDS011;19909;43.644;-79.438;2022-12-28T12:33:32;1.90;;;1.52;;
33579;SDS011;19909;43.644;-79.438;2022-12-28T12:39:08;2.28;;;1.80;;
33579;SDS011;19909;43.644;-79.438;2022-12-28T12:41:40;2.20;;;1.58;;
33579;SDS011;19909;43.644;-79.438;2022-12-28T12:47:01;1.83;;;1.55;;
33579;SDS011;19909;43.644;-79.438;2022-12-28T13:01:20;2.35;;;1.40;;
33579;SDS011;19909;43.644;-79.438;2022-12-28T13:04:38;2.80;;;1.70;;
33579;SDS011;19909;43.644;-79.438;2022-12-28T13:06:58;1.45;;;1.13;;
33579;SDS011;19909;43.644;-79.438;2022-12-28T13:09:27;3.28;;;1.92;;
33579;SDS011;19909;43.644;-79.438;2022-12-28T13:11:56;1.90;;;1.40;;
33579;SDS011;19909;43.644;-79.438;2022-12-28T13:14:24;1.55;;;1.30;;
33579;SDS011;19909;43.644;-79.438;2022-12-28T13:16:51;1.92;;;1.48;;
33579;SDS011;19909;43.644;-79.438;2022-12-28T13:19:20;1.30;;;1.20;;
33579;SDS011;19909;43.644;-79.438;2022-12-28T13:21:51;1.27;;;1.17;;
33579;SDS011;19909;43.644;-79.438;2022-12-28T13:26:55;2.03;;;1.50;;
33579;SDS011;19909;43.644;-79.438;2022-12-28T13:29:27;2.03;;;1.50;;
33579;SDS011;19909;43.644;-79.438;2022-12-28T13:31:59;2.20;;;1.63;;
33579;SDS011;19909;43.644;-79.438;2022-12-28T13:34:26;1.52;;;1.40;;
33579;SDS011;19909;43.644;-79.438;2022-12-28T13:36:55;1.73;;;1.55;;
33579;SDS011;19909;43.644;-79.438;2022-12-28T13:39:26;1.75;;;1.50;;
33579;SDS011;19909;43.644;-79.438;2022-12-28T13:41:57;2.90;;;1.10;;
33579;SDS011;19909;43.644;-79.438;2022-12-28T13:47:36;2.15;;;1.65;;
33579;SDS011;19909;43.644;-79.438;2022-12-28T13:50:08;2.30;;;1.50;;
33579;SDS011;19909;43.644;-79.438;2022-12-28T13:52:59;1.77;;;1.58;;
33579;SDS011;19909;43.644;-79.438;2022-12-28T13:58:21;1.80;;;1.40;;
33579;SDS011;19909;43.644;-79.438;2022-12-28T14:00:52;1.85;;;1.55;;
33579;SDS011;19909;43.644;-79.438;2022-12-28T14:03:21;1.95;;;1.70;;
33579;SDS011;19909;43.644;-79.438;2022-12-28T14:05:49;1.60;;;1.25;;
33579;SDS011;19909;43.644;-79.438;2022-12-28T14:08:19;1.92;;;1.20;;
33579;SDS011;19909;43.644;-79.438;2022-12-28T14:10:47;2.92;;;1.88;;
33579;SDS011;19909;43.644;-79.438;2022-12-28T14:13:14;5.03;;;3.15;;
33579;SDS011;19909;43.644;-79.438;2022-12-28T14:15:42;5.20;;;3.17;;
33579;SDS011;19909;43.644;-79.438;2022-12-28T14:18:12;4.80;;;3.38;;
33579;SDS011;19909;43.644;-79.438;2022-12-28T14:20:50;7.75;;;4.05;;
33579;SDS011;19909;43.644;-79.438;2022-12-28T14:23:36;5.82;;;4.13;;
33579;SDS011;19909;43.644;-79.438;2022-12-28T14:26:24;6.70;;;4.93;;
33579;SDS011;19909;43.644;-79.438;2022-12-28T14:28:51;8.90;;;5.03;;
33579;SDS011;19909;43.644;-79.438;2022-12-28T14:31:23;10.40;;;5.97;;
33579;SDS011;19909;43.644;-79.438;2022-12-28T14:36:37;7.78;;;5.28;;
33579;SDS011;19909;43.644;-79.438;2022-12-28T14:39:14;5.65;;;4.65;;
33579;SDS011;19909;43.644;-79.438;2022-12-28T14:42:21;7.40;;;5.13;;
33579;SDS011;19909;43.644;-79.438;2022-12-28T14:44:49;6.13;;;4.72;;
33579;SDS011;19909;43.644;-79.438;2022-12-28T14:50:20;7.68;;;5.15;;
33579;SDS011;19909;43.644;-79.438;2022-12-28T14:53:12;6.20;;;4.47;;
33579;SDS011;19909;43.644;-79.438;2022-12-28T14:58:19;5.22;;;3.90;;
33579;SDS011;19909;43.644;-79.438;2022-12-28T15:00:59;5.45;;;4.03;;
33579;SDS011;19909;43.644;-79.438;2022-12-28T15:03:27;6.60;;;4.35;;
33579;SDS011;19909;43.644;-79.438;2022-12-28T15:05:58;5.85;;;4.57;;
33579;SDS011;19909;43.644;-79.438;2022-12-28T15:08:25;6.55;;;4.00;;
33579;SDS011;19909;43.644;-79.438;2022-12-28T15:10:53;4.97;;;3.47;;
33579;SDS011;19909;43.644;-79.438;2022-12-28T15:13:23;4.35;;;3.33;;
33579;SDS011;19909;43.644;-79.438;2022-12-28T15:15:51;5.28;;;4.00;;
33579;SDS011;19909;43.644;-79.438;2022-12-28T15:18:30;4.72;;;3.63;;
33579;SDS011;19909;43.644;-79.438;2022-12-28T15:21:02;5.03;;;3.45;;
33579;SDS011;19909;43.644;-79.438;2022-12-28T15:23:29;5.75;;;3.88;;
33579;SDS011;19909;43.644;-79.438;2022-12-28T15:25:55;4.47;;;3.47;;
33579;SDS011;19909;43.644;-79.438;2022-12-28T15:28:24;5.05;;;3.03;;
33579;SDS011;19909;43.644;-79.438;2022-12-28T15:30:50;5.90;;;3.55;;
33579;SDS011;19909;43.644;-79.438;2022-12-28T15:33:16;3.78;;;3.20;;
33579;SDS011;19909;43.644;-79.438;2022-12-28T15:35:43;7.70;;;2.92;;
33579;SDS011;19909;43.644;-79.438;2022-12-28T15:38:09;4.15;;;3.17;;
33579;SDS011;19909;43.644;-79.438;2022-12-28T15:40:37;4.72;;;2.90;;
33579;SDS011;19909;43.644;-79.438;2022-12-28T15:43:04;4.38;;;2.80;;
33579;SDS011;19909;43.644;-79.438;2022-12-28T15:45:30;7.25;;;2.30;;
33579;SDS011;19909;43.644;-79.438;2022-12-28T15:47:57;6.38;;;3.13;;
33579;SDS011;19909;43.644;-79.438;2022-12-28T15:50:23;4.75;;;2.40;;
33579;SDS011;19909;43.644;-79.438;2022-12-28T15:52:49;3.92;;;2.50;;
33579;SDS011;19909;43.644;-79.438;2022-12-28T15:55:15;3.92;;;2.53;;
33579;SDS011;19909;43.644;-79.438;2022-12-28T15:57:41;3.92;;;2.38;;
33579;SDS011;19909;43.644;-79.438;2022-12-28T16:00:09;3.65;;;2.15;;
33579;SDS011;19909;43.644;-79.438;2022-12-28T16:02:37;4.32;;;1.85;;
33579;SDS011;19909;43.644;-79.438;2022-12-28T16:05:03;3.15;;;1.80;;
33579;SDS011;19909;43.644;-79.438;2022-12-28T16:07:30;4.28;;;2.00;;
33579;SDS011;19909;43.644;-79.438;2022-12-28T16:09:56;3.53;;;2.35;;
33579;SDS011;19909;43.644;-79.438;2022-12-28T16:12:23;2.30;;;2.10;;
33579;SDS011;19909;43.644;-79.438;2022-12-28T16:14:49;5.25;;;1.92;;
33579;SDS011;19909;43.644;-79.438;2022-12-28T16:17:15;2.92;;;2.13;;
33579;SDS011;19909;43.644;-79.438;2022-12-28T16:19:42;2.05;;;1.67;;
33579;SDS011;19909;43.644;-79.438;2022-12-28T16:22:08;3.42;;;1.58;;
33579;SDS011;19909;43.644;-79.438;2022-12-28T16:24:34;2.50;;;1.77;;
33579;SDS011;19909;43.644;-79.438;2022-12-28T16:27:00;1.83;;;1.25;;
33579;SDS011;19909;43.644;-79.438;2022-12-28T16:29:27;2.30;;;1.60;;
33579;SDS011;19909;43.644;-79.438;2022-12-28T16:31:53;2.45;;;1.60;;